Time;durP1;ratioP1;P1;durP2;ratioP2;P2;SDS_P1;SDS_P2;PMS_P1;PMS_P2;Temp;Humidity;BMP_temperature;BMP_pressure;BME280_temperature;BME280_humidity;BME280_pressure;Samples;Min_cycle;Max_cycle;Signal;HPM_P1;HPM_P2
2022/03/30 00:00:32;;;;;;;18.00;9.70;;;;;;;11.35;43.85;98822.31;4408167;32;34707;-66
2022/03/30 00:03:00;;;;;;;16.65;9.82;;;;;;;11.54;42.50;98811.56;4410614;32;34093;-65
2022/03/30 00:05:28;;;;;;;17.58;9.43;;;;;;;11.37;43.59;98812.84;4391263;32;33680;-65
2022/03/30 00:07:55;;;;;;;17.62;10.20;;;;;;;11.35;43.97;98815.41;4408091;32;33573;-66
2022/03/30 00:10:23;;;;;;;18.27;10.32;;;;;;;11.24;44.51;98811.66;4408147;32;34447;-65
2022/03/30 00:12:51;;;;;;;20.70;9.95;;;;;;;11.32;44.21;98819.63;4407584;32;33995;-65
2022/03/30 00:15:18;;;;;;;20.62;10.40;;;;;;;11.16;44.66;98820.94;4408013;32;33738;-65
2022/03/30 00:17:46;;;;;;;18.25;10.57;;;;;;;11.11;44.71;98815.66;4407882;32;33797;-65
2022/03/30 00:20:13;;;;;;;24.15;11.32;;;;;;;10.94;45.84;98822.97;4403894;32;35385;-66
2022/03/30 00:22:41;;;;;;;19.27;11.05;;;;;;;11.11;45.07;98818.25;4407328;32;34755;-66
2022/03/30 00:25:10;;;;;;;22.13;12.25;;;;;;;11.39;44.42;98818.94;4407854;32;33800;-65
2022/03/30 00:27:38;;;;;;;19.85;11.55;;;;;;;11.44;44.00;98809.59;4408159;32;34602;-66
2022/03/30 00:30:06;;;;;;;19.85;11.57;;;;;;;12.04;41.76;98802.41;4408379;32;34578;-66
2022/03/30 00:32:34;;;;;;;19.60;11.07;;;;;;;11.75;43.25;98806.03;4406424;32;32421;-65
2022/03/30 00:35:02;;;;;;;20.00;11.57;;;;;;;11.98;42.94;98804.00;4408079;32;34509;-65
2022/03/30 00:37:29;;;;;;;21.30;11.45;;;;;;;12.27;42.68;98796.00;4408358;32;33923;-66
2022/03/30 00:39:57;;;;;;;17.73;10.75;;;;;;;12.39;41.49;98791.06;4408038;32;34433;-66
2022/03/30 00:42:25;;;;;;;22.27;10.50;;;;;;;11.94;42.45;98797.00;4394030;32;33753;-66
2022/03/30 00:44:53;;;;;;;16.73;11.05;;;;;;;12.88;40.29;98791.16;4406919;32;33757;-66
2022/03/30 00:47:23;;;;;;;17.65;10.10;;;;;;;13.02;40.95;98787.97;4407768;32;33988;-65
2022/03/30 00:49:51;;;;;;;20.23;10.73;;;;;;;12.91;41.01;98787.78;4410290;32;33857;-66
2022/03/30 00:52:20;;;;;;;17.40;10.73;;;;;;;13.21;40.14;98790.03;4412224;32;34215;-67
2022/03/30 00:54:50;;;;;;;20.42;11.52;;;;;;;13.24;40.61;98789.25;4407770;32;34118;-65
2022/03/30 00:57:22;;;;;;;19.33;11.45;;;;;;;13.42;39.97;98789.56;4394571;32;34630;-64
2022/03/30 00:59:50;;;;;;;15.55;10.23;;;;;;;13.51;39.12;98781.94;4394920;32;34505;-65
2022/03/30 01:02:17;;;;;;;19.23;11.20;;;;;;;13.40;39.27;98780.00;4391494;32;32564;-66
2022/03/30 01:04:45;;;;;;;18.48;9.70;;;;;;;13.63;38.84;98783.00;4407920;32;33688;-65
2022/03/30 01:07:13;;;;;;;19.73;10.20;;;;;;;13.80;38.37;98775.47;4404694;32;33860;-65
2022/03/30 01:09:41;;;;;;;17.95;9.57;;;;;;;13.38;38.47;98777.38;4408045;32;33465;-65
2022/03/30 01:12:10;;;;;;;18.35;10.55;;;;;;;12.61;40.39;98775.91;4396982;32;34106;-66
2022/03/30 01:14:38;;;;;;;18.95;9.75;;;;;;;12.64;42.13;98778.59;4407209;32;34545;-64
2022/03/30 01:17:06;;;;;;;18.00;10.68;;;;;;;12.50;41.67;98767.06;4407088;32;34777;-65
2022/03/30 01:19:34;;;;;;;22.62;11.40;;;;;;;12.62;40.22;98777.69;4407831;32;33885;-65
2022/03/30 01:22:02;;;;;;;18.77;10.50;;;;;;;12.28;40.78;98776.09;4407815;32;33791;-65
2022/03/30 01:24:29;;;;;;;18.50;10.63;;;;;;;12.55;40.66;98770.59;4407763;32;34234;-66
2022/03/30 01:26:57;;;;;;;17.75;9.90;;;;;;;12.46;40.89;98775.59;4407654;32;34161;-65
2022/03/30 01:32:26;;;;;;;17.15;9.80;;;;;;;12.17;41.77;98758.56;4406800;32;33665;-66
2022/03/30 01:34:55;;;;;;;17.67;9.75;;;;;;;12.25;41.67;98761.34;4407125;32;33643;-65
2022/03/30 01:37:24;;;;;;;18.50;9.65;;;;;;;13.03;40.53;98759.41;4393850;32;33970;-65
2022/03/30 01:39:51;;;;;;;16.98;10.13;;;;;;;13.16;40.36;98750.97;4405780;32;33811;-66
2022/03/30 01:42:19;;;;;;;20.00;10.50;;;;;;;11.98;42.78;98746.91;4406358;32;32630;-64
2022/03/30 01:44:47;;;;;;;21.37;10.52;;;;;;;11.77;43.20;98746.41;4407502;32;33607;-65
2022/03/30 01:47:14;;;;;;;17.83;10.30;;;;;;;11.79;43.27;98744.72;4407363;32;33911;-66
2022/03/30 01:49:42;;;;;;;20.17;10.55;;;;;;;11.67;43.55;98747.03;4406761;32;33953;-66
2022/03/30 01:52:10;;;;;;;17.02;10.38;;;;;;;11.85;43.18;98747.44;4404967;32;33940;-64
2022/03/30 01:54:40;;;;;;;16.87;10.20;;;;;;;12.13;42.55;98746.38;4407168;32;34418;-64
2022/03/30 01:57:12;;;;;;;17.92;9.40;;;;;;;12.13;42.63;98735.09;4397687;32;34618;-66
2022/03/30 01:59:43;;;;;;;17.15;8.95;;;;;;;12.87;41.38;98741.78;4407136;32;34620;-65
2022/03/30 02:02:11;;;;;;;19.73;9.77;;;;;;;13.03;40.85;98735.13;4406540;32;34273;-65
2022/03/30 02:04:39;;;;;;;16.45;8.73;;;;;;;11.73;44.10;98734.19;4407270;32;33686;-66
2022/03/30 02:07:09;;;;;;;17.37;9.45;;;;;;;11.49;45.07;98739.66;4406667;32;34114;-65
2022/03/30 02:09:37;;;;;;;18.10;9.32;;;;;;;11.34;45.48;98733.28;4393062;32;33467;-66
2022/03/30 02:12:07;;;;;;;16.90;9.60;;;;;;;11.51;44.85;98731.13;4392956;32;34062;-65
2022/03/30 02:14:35;;;;;;;16.60;9.50;;;;;;;11.59;44.90;98726.09;4396923;32;34266;-65
2022/03/30 02:17:02;;;;;;;15.52;9.48;;;;;;;11.54;44.72;98723.38;4396843;32;33826;-64
2022/03/30 02:19:30;;;;;;;18.48;9.88;;;;;;;12.24;43.13;98727.53;4398524;32;34522;-66
2022/03/30 02:21:58;;;;;;;15.43;9.75;;;;;;;12.75;41.90;98732.03;4391969;32;34286;-65
2022/03/30 02:24:25;;;;;;;16.30;9.75;;;;;;;12.34;42.42;98729.47;4392477;32;33738;-66
2022/03/30 02:26:53;;;;;;;18.70;9.75;;;;;;;11.01;45.81;98736.78;4392707;32;34458;-66
2022/03/30 02:29:21;;;;;;;16.67;9.10;;;;;;;11.04;45.87;98742.87;4405245;32;32294;-65
2022/03/30 02:31:48;;;;;;;16.90;9.65;;;;;;;10.53;47.48;98741.53;4398681;32;34000;-66
2022/03/30 02:34:16;;;;;;;17.77;8.70;;;;;;;10.31;48.00;98748.66;4396231;32;33677;-66
2022/03/30 02:36:45;;;;;;;17.75;9.50;;;;;;;11.99;44.05;98738.28;4403861;32;34021;-66
2022/03/30 02:39:14;;;;;;;15.00;8.82;;;;;;;11.56;44.57;98737.25;4408318;32;33654;-66
2022/03/30 02:41:41;;;;;;;18.75;9.82;;;;;;;11.93;44.46;98748.50;4401383;32;33962;-66
2022/03/30 02:44:09;;;;;;;15.52;8.82;;;;;;;11.88;44.33;98744.94;4393098;32;33301;-65
2022/03/30 02:46:36;;;;;;;16.80;9.80;;;;;;;11.15;46.44;98734.53;4405242;32;34044;-66
2022/03/30 02:49:04;;;;;;;18.10;8.95;;;;;;;11.39;45.49;98742.03;4399594;32;33910;-66
2022/03/30 02:51:32;;;;;;;15.52;8.52;;;;;;;12.09;43.36;98738.47;4394348;32;34234;-65
2022/03/30 02:54:00;;;;;;;16.92;9.18;;;;;;;12.18;43.30;98734.34;4399672;32;33822;-66
2022/03/30 02:56:27;;;;;;;16.00;9.10;;;;;;;11.24;45.50;98738.19;4404627;32;34662;-66
2022/03/30 02:58:55;;;;;;;16.25;9.27;;;;;;;11.16;45.55;98743.19;4394105;32;34555;-65
2022/03/30 03:01:22;;;;;;;15.63;9.07;;;;;;;11.60;44.38;98740.81;4395721;32;34744;-65
2022/03/30 03:03:50;;;;;;;18.83;9.55;;;;;;;9.73;49.11;98740.00;4396372;32;34392;-64
2022/03/30 03:06:17;;;;;;;18.33;10.05;;;;;;;10.60;47.11;98740.84;4403740;32;33761;-64
2022/03/30 03:08:45;;;;;;;17.52;10.85;;;;;;;10.65;46.45;98739.28;4394587;32;33928;-65
2022/03/30 03:11:12;;;;;;;19.83;9.73;;;;;;;11.01;45.91;98734.19;4393805;32;34146;-65
2022/03/30 03:13:40;;;;;;;22.42;9.23;;;;;;;11.66;44.20;98733.16;4393970;32;33520;-65
2022/03/30 03:16:07;;;;;;;15.00;9.13;;;;;;;10.21;47.46;98744.03;4392685;32;33868;-65
2022/03/30 03:18:35;;;;;;;20.05;9.40;;;;;;;9.51;50.01;98745.38;4380153;32;33831;-66
2022/03/30 03:21:03;;;;;;;18.87;10.27;;;;;;;9.15;51.28;98749.34;4393349;32;34121;-65
2022/03/30 03:23:30;;;;;;;18.62;10.50;;;;;;;9.47;50.52;98752.13;4393161;32;34417;-66
2022/03/30 03:25:58;;;;;;;20.20;10.45;;;;;;;9.65;49.88;98747.53;4392145;32;33787;-64
2022/03/30 03:28:25;;;;;;;20.83;10.65;;;;;;;9.05;51.63;98747.31;4393553;32;33928;-66
2022/03/30 03:30:53;;;;;;;17.52;10.15;;;;;;;9.27;51.03;98753.19;4392707;32;33901;-66
2022/03/30 03:33:20;;;;;;;18.12;9.85;;;;;;;10.08;49.04;98736.75;4393551;32;34387;-64
2022/03/30 03:35:48;;;;;;;17.10;9.80;;;;;;;9.56;49.87;98739.50;4393117;32;33262;-64
2022/03/30 03:38:16;;;;;;;18.73;9.82;;;;;;;9.27;50.99;98737.66;4393939;32;33764;-65
2022/03/30 03:40:43;;;;;;;17.45;10.23;;;;;;;9.28;50.78;98744.63;4393612;32;34181;-64
2022/03/30 03:43:11;;;;;;;21.27;10.02;;;;;;;9.38;50.38;98742.38;4393592;32;33422;-65
2022/03/30 03:45:39;;;;;;;19.45;10.73;;;;;;;9.46;50.17;98737.44;4392765;32;34359;-64
2022/03/30 03:48:07;;;;;;;17.90;9.73;;;;;;;9.47;50.11;98741.78;4390726;32;34804;-65
2022/03/30 03:50:34;;;;;;;16.15;10.38;;;;;;;9.62;49.83;98737.13;4379837;32;34788;-66
2022/03/30 03:53:02;;;;;;;17.50;10.07;;;;;;;9.64;49.65;98737.16;4392979;32;33468;-65
2022/03/30 03:55:33;;;;;;;17.35;10.10;;;;;;;9.99;48.95;98727.87;4392800;32;34093;-64
2022/03/30 03:58:01;;;;;;;19.02;9.93;;;;;;;9.47;50.38;98731.47;4391849;32;33900;-66
2022/03/30 04:00:29;;;;;;;18.12;9.57;;;;;;;9.03;51.79;98738.63;4391418;32;34083;-64
2022/03/30 04:02:56;;;;;;;19.25;9.55;;;;;;;8.96;52.37;98736.66;4392768;32;34340;-64
2022/03/30 04:05:24;;;;;;;22.02;10.88;;;;;;;9.14;51.97;98734.69;4392273;32;34559;-65
2022/03/30 04:07:51;;;;;;;22.90;11.63;;;;;;;8.75;53.35;98729.94;4379397;32;34809;-66
2022/03/30 04:10:19;;;;;;;17.55;11.07;;;;;;;8.70;53.51;98728.91;4389057;32;34141;-64
2022/03/30 04:12:47;;;;;;;17.25;10.15;;;;;;;8.37;54.41;98724.25;4393528;32;33595;-63
2022/03/30 04:15:14;;;;;;;18.45;10.68;;;;;;;8.15;54.94;98721.72;4393164;32;34650;-65
2022/03/30 04:17:46;;;;;;;21.40;11.60;;;;;;;8.19;54.74;98724.47;4393300;32;33754;-63
2022/03/30 04:20:14;;;;;;;25.58;10.52;;;;;;;8.42;54.18;98727.03;4387020;32;34724;-65
2022/03/30 04:22:43;;;;;;;18.73;10.65;;;;;;;8.01;55.32;98724.66;4393296;32;33710;-64
2022/03/30 04:25:11;;;;;;;25.73;10.45;;;;;;;7.93;55.25;98727.78;4393374;32;33813;-65
2022/03/30 04:27:47;;;;;;;19.85;11.77;;;;;;;7.91;55.29;98730.28;4392959;32;34744;-65
2022/03/30 04:30:16;;;;;;;24.92;13.43;;;;;;;8.19;54.87;98723.56;4393128;32;34212;-63
2022/03/30 04:32:44;;;;;;;24.17;12.70;;;;;;;8.05;54.98;98731.72;4392476;32;33628;-64
2022/03/30 04:35:14;;;;;;;17.85;10.30;;;;;;;8.11;54.80;98725.00;4392293;32;33920;-64
2022/03/30 04:37:41;;;;;;;25.65;12.82;;;;;;;8.17;54.44;98731.28;4393171;32;34754;-63
2022/03/30 04:40:09;;;;;;;19.33;12.13;;;;;;;8.34;53.76;98734.47;4404292;32;34592;-64
2022/03/30 04:42:37;;;;;;;17.90;10.82;;;;;;;8.30;53.96;98731.72;4393062;32;34360;-64
2022/03/30 04:45:05;;;;;;;23.75;11.85;;;;;;;8.01;54.72;98734.97;4392049;32;34149;-65
2022/03/30 04:47:33;;;;;;;18.75;11.12;;;;;;;8.19;54.77;98739.06;4392641;32;34703;-64
2022/03/30 04:50:01;;;;;;;28.27;14.55;;;;;;;7.97;56.04;98738.25;4385258;32;34249;-65
2022/03/30 04:52:29;;;;;;;25.40;12.45;;;;;;;8.10;55.68;98729.28;4403778;32;34602;-64
2022/03/30 04:54:56;;;;;;;23.92;13.27;;;;;;;8.03;56.07;98738.47;4392669;32;33772;-64
2022/03/30 04:57:23;;;;;;;28.35;15.35;;;;;;;8.14;55.94;98736.31;4392699;32;34678;-64
2022/03/30 04:59:51;;;;;;;32.50;17.27;;;;;;;8.18;56.13;98745.91;4391622;32;34796;-64
2022/03/30 05:02:19;;;;;;;27.65;13.98;;;;;;;8.32;55.92;98746.44;4388376;32;33694;-64
2022/03/30 05:04:46;;;;;;;24.95;13.05;;;;;;;8.35;55.95;98751.72;4385393;32;34634;-64
2022/03/30 05:07:14;;;;;;;31.17;13.35;;;;;;;8.79;54.72;98755.03;4390630;32;34559;-65
2022/03/30 05:09:41;;;;;;;27.30;12.63;;;;;;;8.87;54.28;98757.03;4407001;32;33759;-64
2022/03/30 05:12:09;;;;;;;22.45;11.73;;;;;;;9.06;53.84;98764.56;4408891;32;33634;-65
2022/03/30 05:14:37;;;;;;;22.20;10.98;;;;;;;8.77;54.77;98764.44;4404912;32;34575;-64
2022/03/30 05:17:04;;;;;;;20.70;10.88;;;;;;;8.80;54.82;98767.09;4395796;32;32879;-64
2022/03/30 05:19:32;;;;;;;22.35;10.90;;;;;;;8.92;54.63;98765.78;4405754;32;34735;-64
2022/03/30 05:22:00;;;;;;;20.05;11.23;;;;;;;8.90;54.72;98775.19;4407213;32;33979;-64
2022/03/30 05:24:27;;;;;;;24.17;11.75;;;;;;;8.74;55.39;98778.94;4404181;32;34020;-63
2022/03/30 05:26:55;;;;;;;25.00;14.23;;;;;;;9.09;54.25;98777.56;4405663;32;33618;-64
2022/03/30 05:29:23;;;;;;;25.10;13.02;;;;;;;9.17;53.86;98778.69;4406046;32;34191;-65
2022/03/30 05:31:50;;;;;;;25.80;11.77;;;;;;;9.25;53.64;98782.44;4404356;32;33631;-65
2022/03/30 05:34:38;;;;;;;31.17;12.25;;;;;;;9.49;52.61;98771.16;4404303;32;33900;-64
2022/03/30 05:37:05;;;;;;;26.37;12.05;;;;;;;9.38;52.83;98772.50;4393607;32;34688;-64
2022/03/30 05:39:35;;;;;;;22.83;11.63;;;;;;;9.57;52.35;98780.03;4402011;32;34784;-65
2022/03/30 05:42:03;;;;;;;23.80;11.95;;;;;;;9.96;51.41;98770.88;4406770;32;33571;-64
2022/03/30 05:44:31;;;;;;;23.80;11.85;;;;;;;9.94;51.40;98773.41;4401411;32;34512;-65
2022/03/30 05:46:59;;;;;;;27.13;11.85;;;;;;;10.14;50.91;98762.78;4406454;32;33917;-65
2022/03/30 05:49:26;;;;;;;22.35;11.45;;;;;;;9.95;51.93;98761.38;4392011;32;33932;-64
2022/03/30 05:51:54;;;;;;;21.87;11.48;;;;;;;10.17;51.00;98760.31;4406110;32;33651;-65
2022/03/30 05:54:22;;;;;;;24.30;12.02;;;;;;;10.19;50.84;98756.06;4407233;32;34661;-64
2022/03/30 05:57:01;;;;;;;32.83;13.15;;;;;;;10.22;50.97;98762.22;4411151;32;34599;-65
2022/03/30 05:59:41;;;;;;;23.55;13.18;;;;;;;10.16;50.91;98766.31;4407551;32;34210;-65
2022/03/30 06:02:11;;;;;;;19.73;11.27;;;;;;;10.18;50.96;98767.25;4406986;32;34277;-65
2022/03/30 06:04:41;;;;;;;30.20;13.90;;;;;;;9.77;51.98;98764.25;4404775;32;32960;-65
2022/03/30 06:07:09;;;;;;;24.87;13.10;;;;;;;10.19;51.24;98762.09;4390720;32;33024;-64
2022/03/30 06:09:37;;;;;;;29.98;12.60;;;;;;;10.35;50.64;98763.47;4382435;32;33932;-65
2022/03/30 06:12:11;;;;;;;25.02;11.45;;;;;;;10.08;51.58;98762.62;4404225;32;33438;-65
2022/03/30 06:14:39;;;;;;;20.35;11.93;;;;;;;10.24;51.42;98770.88;4408958;32;33673;-65
2022/03/30 06:17:07;;;;;;;25.27;11.32;;;;;;;10.18;51.48;98767.25;4416181;32;33595;-64
2022/03/30 06:19:35;;;;;;;20.27;10.80;;;;;;;10.31;51.51;98771.97;4396946;32;34226;-65
2022/03/30 06:22:08;;;;;;;20.70;11.27;;;;;;;10.41;51.62;98768.84;4406024;32;33534;-65
2022/03/30 06:24:37;;;;;;;22.75;11.43;;;;;;;11.00;49.88;98765.25;4407642;32;34553;-65
2022/03/30 06:27:06;;;;;;;24.63;11.38;;;;;;;11.39;48.89;98772.28;4408706;32;34603;-64
2022/03/30 06:29:34;;;;;;;19.95;11.88;;;;;;;12.11;47.60;98773.13;4408390;32;34810;-65
2022/03/30 06:32:03;;;;;;;22.75;11.30;;;;;;;11.36;49.29;98769.62;4404810;32;33689;-65
2022/03/30 06:34:32;;;;;;;21.73;11.10;;;;;;;11.27;49.71;98770.25;4408322;32;33562;-64
2022/03/30 06:36:59;;;;;;;18.90;10.85;;;;;;;11.63;49.21;98768.53;4407450;32;33960;-65
2022/03/30 06:39:27;;;;;;;25.60;12.07;;;;;;;11.69;49.03;98768.69;4408571;32;34107;-65
2022/03/30 06:41:55;;;;;;;21.42;10.52;;;;;;;11.71;48.97;98777.41;4410570;32;34118;-65
2022/03/30 06:44:23;;;;;;;23.67;11.00;;;;;;;12.00;48.27;98784.16;4408742;32;33602;-65
2022/03/30 06:46:52;;;;;;;20.90;10.93;;;;;;;12.34;47.74;98782.31;4406969;32;34486;-65
2022/03/30 06:49:19;;;;;;;26.60;11.35;;;;;;;12.96;46.98;98784.41;4407018;32;34158;-65
2022/03/30 06:51:47;;;;;;;18.83;11.07;;;;;;;13.42;45.41;98773.97;4408363;32;33599;-65
2022/03/30 06:54:15;;;;;;;20.00;10.75;;;;;;;12.98;46.63;98774.91;4406663;32;34046;-64
2022/03/30 06:56:42;;;;;;;18.67;10.43;;;;;;;13.20;45.51;98777.91;4412742;32;33830;-64
2022/03/30 06:59:12;;;;;;;22.65;11.25;;;;;;;12.49;46.33;98780.87;4395841;32;34035;-64
2022/03/30 07:01:39;;;;;;;23.27;12.05;;;;;;;12.81;46.54;98785.84;4408915;32;33792;-65
2022/03/30 07:04:07;;;;;;;21.55;11.60;;;;;;;12.70;45.88;98775.22;4408343;32;34521;-65
2022/03/30 07:06:34;;;;;;;23.85;12.10;;;;;;;13.06;45.38;98771.59;4408341;32;34012;-65
2022/03/30 07:11:48;;;;;;;26.12;12.50;;;;;;;13.10;44.70;98771.66;4403404;32;33727;-65
2022/03/30 07:14:16;;;;;;;21.58;11.65;;;;;;;12.50;45.71;98777.44;4404118;32;34770;-64
2022/03/30 07:16:44;;;;;;;22.15;12.52;;;;;;;12.57;46.77;98779.28;4401282;32;34363;-64
2022/03/30 07:19:11;;;;;;;21.17;11.32;;;;;;;13.30;44.89;98778.97;4395812;32;34782;-64
2022/03/30 07:21:39;;;;;;;20.08;12.35;;;;;;;13.27;45.00;98778.88;4401017;32;34477;-65
2022/03/30 07:24:07;;;;;;;22.15;12.05;;;;;;;13.69;44.14;98767.47;4401717;32;35738;-64
2022/03/30 07:26:35;;;;;;;23.48;13.18;;;;;;;14.51;42.32;98767.75;4401406;32;34722;-64
2022/03/30 07:29:03;;;;;;;24.40;12.70;;;;;;;14.87;40.64;98768.19;4400505;32;34687;-65
2022/03/30 07:31:30;;;;;;;27.48;17.73;;;;;;;14.42;41.99;98758.97;4401919;32;34317;-65
2022/03/30 07:33:58;;;;;;;30.25;15.40;;;;;;;14.60;41.36;98761.78;4402428;32;34654;-65
2022/03/30 07:36:26;;;;;;;23.73;13.40;;;;;;;14.52;41.74;98759.06;4400244;32;34432;-64
2022/03/30 07:38:53;;;;;;;28.33;13.52;;;;;;;14.83;40.66;98755.97;4391803;32;34985;-65
2022/03/30 07:41:21;;;;;;;25.67;13.02;;;;;;;14.12;41.27;98752.50;4393873;32;34426;-65
2022/03/30 07:43:49;;;;;;;30.52;14.00;;;;;;;14.30;42.01;98752.72;4378310;32;33685;-65
2022/03/30 07:46:16;;;;;;;27.80;14.00;;;;;;;14.69;40.69;98751.50;4388687;32;33737;-65
2022/03/30 07:48:44;;;;;;;24.50;12.50;;;;;;;15.27;39.59;98750.34;4391535;32;33789;-65
2022/03/30 07:51:11;;;;;;;29.50;13.50;;;;;;;15.92;38.01;98747.41;4391868;32;33868;-65
2022/03/30 07:53:39;;;;;;;20.27;12.68;;;;;;;14.88;39.16;98752.56;4390202;32;33663;-65
2022/03/30 07:56:06;;;;;;;22.70;13.25;;;;;;;14.82;39.14;98757.72;4393101;32;34689;-65
2022/03/30 07:58:34;;;;;;;22.95;12.90;;;;;;;14.92;39.03;98763.91;4375492;32;33630;-65
2022/03/30 08:01:01;;;;;;;24.25;13.05;;;;;;;15.09;38.37;98751.91;4394584;32;34508;-64
2022/03/30 08:03:29;;;;;;;21.37;13.05;;;;;;;15.20;38.27;98764.19;4401628;32;33804;-65
2022/03/30 08:05:57;;;;;;;24.50;13.75;;;;;;;15.22;38.29;98763.34;4395921;32;34671;-65
2022/03/30 08:08:24;;;;;;;25.30;13.55;;;;;;;15.30;37.77;98771.25;4382837;32;34789;-65
2022/03/30 08:10:53;;;;;;;21.12;13.30;;;;;;;15.46;37.03;98761.81;4392188;32;32031;-64
2022/03/30 08:13:21;;;;;;;28.98;14.63;;;;;;;15.52;37.31;98761.88;4402277;32;34513;-65
2022/03/30 08:15:48;;;;;;;24.23;14.23;;;;;;;16.22;36.52;98761.50;4396975;32;34284;-65
2022/03/30 08:18:16;;;;;;;25.83;13.90;;;;;;;16.40;36.09;98765.06;4391396;32;34723;-65
2022/03/30 08:23:30;;;;;;;23.35;14.20;;;;;;;16.25;35.82;98771.09;4398224;32;33912;-65
2022/03/30 08:25:57;;;;;;;26.50;14.18;;;;;;;16.68;35.26;98769.53;4401724;32;33645;-65
2022/03/30 08:28:25;;;;;;;24.67;13.45;;;;;;;18.26;32.63;98768.81;4397676;32;35260;-65
2022/03/30 08:30:53;;;;;;;25.27;13.80;;;;;;;18.91;31.37;98763.34;4397346;32;33969;-64
2022/03/30 08:33:23;;;;;;;24.17;13.88;;;;;;;18.13;31.95;98758.34;4397446;32;33737;-65
2022/03/30 08:35:51;;;;;;;24.65;14.32;;;;;;;17.72;33.72;98764.50;4400513;32;33607;-64
2022/03/30 08:38:18;;;;;;;25.05;13.65;;;;;;;19.05;31.48;98764.13;4402435;32;34283;-66
2022/03/30 08:40:46;;;;;;;25.60;13.57;;;;;;;19.56;30.55;98768.13;4395449;32;33485;-65
2022/03/30 08:43:13;;;;;;;21.60;13.38;;;;;;;20.06;29.57;98758.94;4393887;32;34424;-65
2022/03/30 08:45:41;;;;;;;24.17;13.15;;;;;;;20.57;28.41;98769.78;4382811;32;33712;-64
2022/03/30 08:48:09;;;;;;;23.20;13.60;;;;;;;20.74;28.58;98768.72;4396910;32;34830;-65
2022/03/30 08:50:36;;;;;;;27.67;13.77;;;;;;;20.64;28.66;98769.72;4395840;32;33462;-64
2022/03/30 08:53:06;;;;;;;27.33;13.27;;;;;;;20.34;29.18;98770.06;4391972;32;33814;-64
2022/03/30 08:55:34;;;;;;;28.40;14.23;;;;;;;20.01;29.56;98768.63;4393144;32;32988;-64
2022/03/30 08:58:03;;;;;;;27.42;15.13;;;;;;;19.87;30.85;98773.16;4394796;32;34737;-67
2022/03/30 09:00:34;;;;;;;32.22;15.07;;;;;;;18.74;33.09;98770.41;4397146;32;33528;-66
2022/03/30 09:03:03;;;;;;;25.60;13.95;;;;;;;17.83;35.39;98770.62;4399061;32;33664;-63
2022/03/30 09:05:35;;;;;;;24.30;12.68;;;;;;;17.44;35.56;98773.25;4395609;32;34176;-66
2022/03/30 09:08:12;;;;;;;26.17;13.20;;;;;;;17.08;36.98;98767.06;4400567;32;33881;-66
2022/03/30 09:10:47;;;;;;;28.52;12.68;;;;;;;17.24;36.77;98767.09;4409597;32;33823;-66
2022/03/30 09:13:17;;;;;;;23.25;13.75;;;;;;;17.47;37.52;98773.22;4411041;32;34281;-64
2022/03/30 09:15:47;;;;;;;23.00;13.57;;;;;;;17.44;36.76;98768.00;4406296;32;33745;-66
2022/03/30 09:18:16;;;;;;;27.37;12.40;;;;;;;17.71;36.30;98761.00;4408843;32;34880;-66
2022/03/30 09:20:46;;;;;;;26.67;12.65;;;;;;;17.80;36.58;98753.13;4406321;32;33659;-65
2022/03/30 09:23:20;;;;;;;25.33;13.20;;;;;;;17.24;37.56;98762.72;4404601;32;33947;-66
2022/03/30 09:25:50;;;;;;;22.17;12.77;;;;;;;16.97;37.49;98763.56;4407458;32;34724;-65
2022/03/30 09:28:20;;;;;;;24.48;12.98;;;;;;;17.35;37.11;98765.38;4407137;32;34728;-65
2022/03/30 09:30:48;;;;;;;22.70;12.45;;;;;;;17.02;37.18;98766.22;4415129;32;34417;-66
2022/03/30 09:33:17;;;;;;;24.42;12.20;;;;;;;16.96;38.45;98760.94;4399738;32;33522;-66
2022/03/30 09:35:45;;;;;;;25.80;12.52;;;;;;;17.13;38.00;98763.59;4406932;32;33802;-67
2022/03/30 09:38:16;;;;;;;24.45;13.10;;;;;;;16.95;39.47;98762.69;4394364;32;34053;-66
2022/03/30 09:40:48;;;;;;;23.92;12.73;;;;;;;16.77;39.59;98765.22;4405397;32;33816;-66
2022/03/30 09:43:28;;;;;;;20.02;12.77;;;;;;;16.87;39.71;98760.06;4416004;32;34341;-65
2022/03/30 09:46:02;;;;;;;22.17;11.65;;;;;;;16.86;39.70;98760.94;4411298;32;33750;-64
2022/03/30 09:48:32;;;;;;;24.23;13.95;;;;;;;16.92;40.00;98762.69;4406485;32;36280;-65
2022/03/30 09:51:02;;;;;;;24.10;12.85;;;;;;;16.82;40.01;98758.28;4399755;32;33701;-65
2022/03/30 09:53:31;;;;;;;27.42;13.30;;;;;;;16.43;40.81;98754.62;4406407;32;33486;-66
2022/03/30 09:56:02;;;;;;;21.35;12.93;;;;;;;16.56;41.29;98745.13;4412123;32;34578;-65
2022/03/30 09:58:32;;;;;;;21.42;13.13;;;;;;;16.57;40.70;98742.47;4404428;32;34807;-66
2022/03/30 10:01:21;;;;;;;25.85;12.60;;;;;;;16.50;40.87;98740.72;4407417;32;33430;-64
2022/03/30 10:03:54;;;;;;;21.48;12.88;;;;;;;16.17;41.04;98737.09;4405548;32;34514;-65
2022/03/30 10:06:26;;;;;;;21.45;11.77;;;;;;;16.30;40.40;98733.69;4407535;32;34407;-65
2022/03/30 10:08:56;;;;;;;25.80;13.10;;;;;;;16.40;40.66;98736.31;4406891;32;34714;-65
2022/03/30 10:11:28;;;;;;;27.33;12.48;;;;;;;16.50;39.96;98743.34;4406946;32;34250;-67
2022/03/30 10:13:58;;;;;;;24.08;11.95;;;;;;;16.66;40.30;98737.28;4403552;32;34005;-67
2022/03/30 10:16:43;;;;;;;20.60;11.12;;;;;;;16.28;40.54;98735.41;4405831;32;33954;-66
2022/03/30 10:19:12;;;;;;;23.55;12.77;;;;;;;16.59;39.88;98737.25;4404839;32;33761;-66
2022/03/30 10:21:49;;;;;;;20.00;12.80;;;;;;;16.39;40.56;98734.59;4406990;32;32253;-67
2022/03/30 10:24:41;;;;;;;21.12;12.15;;;;;;;16.99;40.11;98734.78;4405494;32;34475;-67
2022/03/30 10:27:20;;;;;;;23.12;12.88;;;;;;;17.14;39.64;98729.59;4407730;32;34603;-64
2022/03/30 10:29:53;;;;;;;19.98;12.52;;;;;;;17.35;39.39;98718.25;4407237;32;34092;-66
2022/03/30 10:32:24;;;;;;;19.92;11.50;;;;;;;16.86;40.30;98720.81;4392693;32;33741;-65
2022/03/30 10:34:59;;;;;;;19.77;12.07;;;;;;;16.56;41.48;98714.59;4408241;32;33812;-66
2022/03/30 10:37:29;;;;;;;28.73;11.85;;;;;;;16.14;42.46;98710.94;4408277;32;33897;-66
2022/03/30 10:40:10;;;;;;;22.40;12.10;;;;;;;16.28;42.32;98703.16;4406537;32;34202;-67
2022/03/30 10:42:47;;;;;;;24.10;12.27;;;;;;;16.33;42.10;98708.44;4407925;32;33627;-67
2022/03/30 10:45:24;;;;;;;20.37;11.25;;;;;;;16.64;41.36;98702.41;4404966;32;33699;-65
2022/03/30 10:48:23;;;;;;;19.12;11.38;;;;;;;16.46;40.37;98707.59;4407452;32;33822;-66
2022/03/30 10:51:14;;;;;;;18.73;11.38;;;;;;;16.68;40.12;98709.41;4407359;32;34071;-65
2022/03/30 10:53:44;;;;;;;21.33;10.75;;;;;;;16.80;39.96;98707.69;4408190;32;34603;-65
2022/03/30 10:56:24;;;;;;;20.27;10.60;;;;;;;16.23;40.56;98690.09;4408142;32;33874;-66
2022/03/30 10:58:52;;;;;;;18.50;10.48;;;;;;;16.10;40.51;98694.38;4408843;32;34532;-67
2022/03/30 11:01:31;;;;;;;19.20;10.65;;;;;;;16.18;40.24;98696.16;4408418;32;34893;-66
2022/03/30 11:04:00;;;;;;;17.35;9.80;;;;;;;16.40;40.68;98697.09;4406382;32;34351;-66
2022/03/30 11:06:29;;;;;;;20.15;11.25;;;;;;;16.48;40.77;98695.41;4408674;32;33826;-66
2022/03/30 11:08:58;;;;;;;19.20;10.60;;;;;;;16.67;41.18;98691.97;4381576;32;34368;-66
2022/03/30 11:11:29;;;;;;;18.23;10.90;;;;;;;16.90;41.26;98681.59;4408524;32;35091;-66
2022/03/30 11:14:25;;;;;;;17.65;11.02;;;;;;;17.12;40.10;98678.12;4407332;32;33583;-65
2022/03/30 11:16:58;;;;;;;17.62;10.48;;;;;;;16.53;41.52;98677.97;4408208;32;33882;-65
2022/03/30 11:19:47;;;;;;;19.90;12.63;;;;;;;16.63;41.33;98674.53;4407981;32;34081;-65
2022/03/30 11:22:37;;;;;;;20.70;11.23;;;;;;;16.92;40.61;98673.75;4401208;32;34791;-66
2022/03/30 11:25:13;;;;;;;18.08;10.70;;;;;;;16.93;40.25;98674.63;4408404;32;33744;-66
2022/03/30 11:27:43;;;;;;;22.73;11.40;;;;;;;16.95;40.22;98665.91;4408191;32;33530;-66
2022/03/30 11:30:12;;;;;;;18.25;10.43;;;;;;;17.22;39.65;98658.94;4397331;32;34728;-66
2022/03/30 11:32:49;;;;;;;16.73;10.82;;;;;;;17.25;38.67;98658.94;4406199;32;34903;-65
2022/03/30 11:35:19;;;;;;;16.10;10.65;;;;;;;17.71;39.04;98652.75;4398692;32;33726;-66
2022/03/30 11:37:46;;;;;;;18.80;10.70;;;;;;;17.54;38.79;98658.00;4408691;32;34606;-66